createdAt,value
2019-05-14T05:11:39.093Z,5.25
2019-05-14T05:21:38.686Z,6.75
2019-05-14T05:31:38.101Z,7.62
2019-05-14T05:41:38.303Z,8.25
2019-05-14T05:51:35.842Z,9.00
2019-05-14T06:01:44.922Z,9.63
2019-05-14T06:11:37.954Z,10.13
2019-05-14T06:21:36.022Z,10.63
2019-05-14T06:31:38.431Z,11.25
2019-05-14T06:41:40.143Z,12.00
2019-05-14T06:51:35.919Z,12.88
2019-05-14T07:01:38.260Z,14.38
2019-05-14T07:11:38.620Z,15.75
2019-05-14T07:21:38.195Z,16.50
2019-05-14T07:31:38.272Z,17.37
2019-05-14T07:41:34.964Z,17.87
2019-05-14T07:51:35.869Z,18.50
2019-05-14T08:01:35.752Z,19.75
2019-05-14T08:11:35.911Z,21.62
2019-05-14T08:21:38.257Z,20.88
2019-05-14T08:31:38.387Z,19.37
2019-05-14T08:41:38.134Z,21.00
2019-05-14T08:51:38.613Z,20.62
2019-05-14T09:01:38.526Z,19.50
2019-05-14T09:11:42.741Z,17.75
2019-05-14T09:21:39.441Z,20.88
2019-05-14T09:31:39.119Z,20.88
2019-05-14T09:41:35.907Z,19.50
2019-05-14T09:51:38.163Z,21.50
2019-05-14T10:01:38.192Z,21.75
2019-05-14T10:11:38.192Z,22.87
2019-05-14T10:21:38.873Z,20.25
2019-05-14T10:31:35.953Z,18.37
2019-05-14T10:41:38.498Z,19.62
2019-05-14T10:51:38.717Z,21.25
2019-05-14T11:01:35.847Z,21.25
2019-05-14T11:11:38.250Z,21.62
2019-05-14T11:21:36.011Z,22.00
2019-05-14T11:31:38.854Z,22.13
2019-05-14T11:41:38.734Z,21.25
2019-05-14T11:51:58.988Z,21.37
2019-05-14T12:01:39.043Z,21.37
2019-05-14T12:11:38.526Z,19.87
2019-05-14T12:21:35.810Z,20.37
2019-05-14T12:31:38.399Z,20.12
2019-05-14T12:41:38.106Z,21.75
2019-05-14T12:51:39.375Z,18.75
2019-05-14T13:01:36.086Z,21.25
2019-05-14T13:11:35.735Z,19.75
2019-05-14T13:21:38.739Z,20.25
2019-05-14T13:31:36.219Z,21.87
2019-05-14T13:41:35.661Z,20.12
2019-05-14T13:51:38.619Z,21.12
2019-05-14T14:01:35.891Z,19.87
2019-05-14T14:11:38.190Z,21.12
2019-05-14T14:21:35.950Z,20.12
2019-05-14T14:31:36.119Z,20.12
2019-05-14T14:41:38.447Z,21.37
2019-05-14T14:51:41.733Z,19.12
2019-05-14T15:01:39.870Z,21.37
2019-05-14T15:11:39.429Z,19.62
2019-05-14T15:21:36.575Z,22.75
2019-05-14T15:31:38.393Z,20.62
2019-05-14T15:41:39.118Z,20.12
2019-05-14T15:51:36.051Z,20.62
2019-05-14T16:01:39.593Z,20.37
2019-05-14T16:11:35.809Z,21.50
2019-05-14T16:21:38.558Z,20.12
2019-05-14T16:31:40.238Z,20.88
2019-05-14T16:41:38.836Z,18.12
2019-05-14T16:51:36.156Z,17.50
2019-05-14T17:01:35.920Z,20.50
2019-05-14T17:11:36.011Z,20.12
2019-05-14T17:21:35.997Z,19.50
2019-05-14T17:31:38.953Z,17.37
2019-05-14T17:41:36.182Z,17.00
2019-05-14T17:51:38.939Z,16.62
2019-05-14T18:01:39.070Z,16.25
2019-05-14T18:11:37.054Z,16.12
2019-05-14T18:21:39.085Z,15.63
2019-05-14T18:31:43.146Z,15.25
2019-05-14T18:41:35.903Z,14.75
2019-05-14T18:51:36.092Z,14.38
2019-05-14T19:01:35.848Z,14.13
